Cayuga, North Dakota
Current Conditions -  °F | °C
As of 3:55 PM on Thursday 27 Nov 2014 (Local Time) from KGWR Reporting Station
Broken Clouds Broken Clouds  
Wind Chill: -4°   Ceiling: 7500
Heat Index: 10°   Visibility: 10mi
Dew Point:   Wind: 12mph
Humidity: 62%   Direction: 120°ESE
Pressure: 30.26"   Gusts: NA
Location:  46.07°N, 97.38°W
Report Text: KGWR 272155Z AUTO 12010KT 10SM BKN075 M12/M18 A3026 RMK A01 P000
Loading
Personal Weather Stations






























Interactive Weather Map New forecast layout! Learn more

10-Day Weather Forecast

Advertisements
Track Severe Weather on mobile